createdAt,value
2022-07-30T00:02:42.087Z,51.73
2022-07-30T00:06:04.030Z,51.97
2022-07-30T00:09:25.897Z,52.23
2022-07-30T00:12:49.046Z,52.17
2022-07-30T00:16:11.757Z,52.79
2022-07-30T00:19:34.141Z,52.40
2022-07-30T00:22:57.034Z,52.77
2022-07-30T00:26:18.721Z,52.81
2022-07-30T00:29:45.007Z,52.86
2022-07-30T00:33:08.075Z,52.72
2022-07-30T00:36:29.783Z,52.82
2022-07-30T00:39:51.656Z,53.31
2022-07-30T00:43:16.667Z,53.73
2022-07-30T00:46:40.208Z,54.23
2022-07-30T00:50:04.532Z,54.65
2022-07-30T00:53:26.305Z,54.36
2022-07-30T00:56:49.068Z,54.67
2022-07-30T01:00:14.451Z,54.34
2022-07-30T01:03:38.863Z,54.54
2022-07-30T01:07:00.962Z,54.45
2022-07-30T01:10:23.045Z,55.01
2022-07-30T01:13:45.650Z,54.43
2022-07-30T01:17:07.909Z,54.99
2022-07-30T01:20:34.475Z,55.51
2022-07-30T01:24:01.268Z,55.33
2022-07-30T01:27:26.177Z,55.39
2022-07-30T01:30:50.155Z,55.77
2022-07-30T01:34:14.942Z,56.13
2022-07-30T01:37:38.051Z,56.55
2022-07-30T01:41:01.150Z,55.76
2022-07-30T01:44:26.987Z,56.46
2022-07-30T01:47:50.393Z,56.45
2022-07-30T01:51:14.387Z,56.99
2022-07-30T01:54:41.387Z,57.59
2022-07-30T01:58:04.637Z,57.25
2022-07-30T02:01:29.496Z,57.03
2022-07-30T02:04:53.588Z,56.23
2022-07-30T02:08:19.842Z,55.70
2022-07-30T02:12:05.678Z,55.46
2022-07-30T02:15:32.985Z,55.63
2022-07-30T02:19:04.342Z,56.08
2022-07-30T02:22:34.561Z,56.16
2022-07-30T02:26:00.443Z,56.64
2022-07-30T02:29:24.877Z,56.50
2022-07-30T02:32:49.819Z,56.31
2022-07-30T02:36:14.676Z,56.73
2022-07-30T02:39:39.759Z,57.09
2022-07-30T02:43:02.664Z,57.59
2022-07-30T02:46:27.306Z,58.01
2022-07-30T02:50:10.684Z,57.88
2022-07-30T02:53:35.676Z,57.94
2022-07-30T02:56:58.083Z,57.76
2022-07-30T03:00:20.304Z,57.99
2022-07-30T03:03:43.872Z,57.78
2022-07-30T03:07:08.601Z,57.79
2022-07-30T03:10:33.685Z,57.37
2022-07-30T03:13:55.277Z,57.07
2022-07-30T03:17:18.332Z,57.47
2022-07-30T03:20:41.278Z,57.66
2022-07-30T03:24:04.320Z,57.58
2022-07-30T03:27:29.428Z,57.78
2022-07-30T03:30:51.840Z,57.49
2022-07-30T03:34:14.541Z,57.68
2022-07-30T03:37:38.174Z,58.46
2022-07-30T03:41:01.439Z,57.52
2022-07-30T03:44:24.808Z,57.46
2022-07-30T03:47:47.801Z,57.55
2022-07-30T03:51:11.032Z,57.73
2022-07-30T03:54:36.301Z,57.58
2022-07-30T03:58:27.397Z,57.62
2022-07-30T04:01:55.656Z,57.74
2022-07-30T04:05:45.912Z,57.45
2022-07-30T04:09:09.217Z,57.78
2022-07-30T04:12:31.335Z,57.69
2022-07-30T04:16:05.046Z,57.81
2022-07-30T04:19:48.148Z,57.82
2022-07-30T04:23:11.735Z,57.70
2022-07-30T04:26:36.106Z,57.38
2022-07-30T04:29:59.864Z,57.84
2022-07-30T04:33:21.852Z,57.73
2022-07-30T04:37:14.398Z,57.68
2022-07-30T04:40:36.122Z,58.03
2022-07-30T04:43:58.105Z,58.19
2022-07-30T04:47:21.429Z,57.82
2022-07-30T04:51:21.096Z,58.22
2022-07-30T04:54:50.157Z,58.22
2022-07-30T04:58:14.631Z,57.71
2022-07-30T05:01:40.640Z,57.94
2022-07-30T05:05:04.797Z,57.25
2022-07-30T05:08:28.145Z,57.82
2022-07-30T05:11:56.247Z,57.62
2022-07-30T05:15:18.604Z,57.51
2022-07-30T05:18:40.473Z,57.65
2022-07-30T05:22:06.583Z,57.46
2022-07-30T05:25:30.090Z,57.38
2022-07-30T05:29:04.064Z,57.18
2022-07-30T05:32:51.549Z,57.53
2022-07-30T05:36:13.529Z,57.91
2022-07-30T05:39:35.543Z,58.09
2022-07-30T05:43:41.992Z,57.92
2022-07-30T05:47:05.029Z,58.12
2022-07-30T05:50:26.883Z,58.19
2022-07-30T05:53:48.480Z,57.89
2022-07-30T05:57:42.034Z,58.23
2022-07-30T06:01:03.641Z,57.61
2022-07-30T06:04:28.117Z,57.51
2022-07-30T06:07:55.270Z,57.16
2022-07-30T06:11:18.417Z,57.30
2022-07-30T06:14:40.574Z,57.65
2022-07-30T06:18:05.549Z,57.42
2022-07-30T06:22:02.119Z,57.36
2022-07-30T06:25:24.456Z,56.99
2022-07-30T06:28:46.229Z,56.51
2022-07-30T06:32:12.564Z,56.95
2022-07-30T06:35:34.534Z,57.30
2022-07-30T06:38:57.545Z,56.33
2022-07-30T06:42:31.457Z,56.49
2022-07-30T06:46:16.030Z,56.94
2022-07-30T06:49:41.662Z,56.79
2022-07-30T06:53:05.395Z,56.09
2022-07-30T06:56:48.574Z,56.07
2022-07-30T07:00:11.866Z,56.16
2022-07-30T07:03:39.854Z,55.86
2022-07-30T07:07:12.665Z,55.59
2022-07-30T07:10:36.411Z,55.80
2022-07-30T07:14:25.429Z,54.80
2022-07-30T07:17:47.242Z,54.87
2022-07-30T07:21:26.319Z,54.17
2022-07-30T07:24:49.557Z,53.70
2022-07-30T07:28:18.238Z,53.26
2022-07-30T07:32:02.805Z,53.14
2022-07-30T07:35:23.655Z,52.96
2022-07-30T07:38:45.484Z,52.77
2022-07-30T07:42:08.036Z,52.66
2022-07-30T07:45:32.042Z,52.67
2022-07-30T07:49:01.285Z,52.56
2022-07-30T07:52:29.385Z,52.50
2022-07-30T07:55:51.219Z,52.26
2022-07-30T07:59:17.190Z,52.27
2022-07-30T08:02:39.733Z,52.14
2022-07-30T08:06:06.801Z,52.33
2022-07-30T08:09:51.924Z,52.40
2022-07-30T08:13:52.126Z,52.64
2022-07-30T08:17:25.069Z,52.41
2022-07-30T08:21:08.603Z,52.26
2022-07-30T08:24:30.423Z,52.58
2022-07-30T08:27:52.556Z,52.32
2022-07-30T08:31:14.846Z,52.54
2022-07-30T08:34:36.569Z,52.17
2022-07-30T08:38:00.184Z,52.26
2022-07-30T08:41:23.875Z,53.13
2022-07-30T08:44:47.035Z,52.59
2022-07-30T08:48:16.282Z,52.47
2022-07-30T08:51:40.085Z,52.60
2022-07-30T08:55:22.412Z,53.28
2022-07-30T08:58:44.548Z,52.66
2022-07-30T09:02:10.385Z,52.26
2022-07-30T09:05:48.546Z,52.03
2022-07-30T09:09:11.059Z,52.24
2022-07-30T09:12:40.390Z,51.57
2022-07-30T09:16:03.399Z,51.80
2022-07-30T09:19:27.047Z,51.87
2022-07-30T09:22:50.276Z,51.15
2022-07-30T09:26:32.979Z,50.98
2022-07-30T09:30:50.241Z,51.03
2022-07-30T09:34:32.259Z,49.96
2022-07-30T09:38:06.471Z,48.87
2022-07-30T09:41:58.375Z,48.92
2022-07-30T09:45:20.018Z,48.30
2022-07-30T09:48:44.746Z,48.71
2022-07-30T09:52:06.913Z,48.36
2022-07-30T09:55:34.541Z,47.76
2022-07-30T09:58:56.462Z,47.78
2022-07-30T10:02:19.534Z,47.41
2022-07-30T10:06:03.822Z,47.10
2022-07-30T10:09:30.675Z,47.15
2022-07-30T10:12:54.235Z,47.54
2022-07-30T10:16:16.327Z,47.49
2022-07-30T10:19:40.482Z,48.06
2022-07-30T10:23:27.070Z,47.61
2022-07-30T10:27:10.233Z,47.42
2022-07-30T10:30:46.303Z,47.62
2022-07-30T10:34:11.874Z,48.26
2022-07-30T10:37:35.869Z,47.23
2022-07-30T10:41:06.171Z,47.02
2022-07-30T10:44:59.958Z,47.03
2022-07-30T10:48:22.694Z,46.83
2022-07-30T10:51:46.782Z,46.34
2022-07-30T10:55:15.858Z,46.91
2022-07-30T10:58:58.578Z,46.62
2022-07-30T11:02:24.949Z,46.05
2022-07-30T11:05:51.445Z,46.40
2022-07-30T11:09:36.475Z,45.27
2022-07-30T11:13:03.355Z,45.26
2022-07-30T11:17:04.019Z,45.11
2022-07-30T11:20:26.339Z,45.44
2022-07-30T11:23:49.529Z,44.90
2022-07-30T11:27:41.781Z,44.72
2022-07-30T11:31:10.353Z,43.87
2022-07-30T11:34:33.645Z,43.09
2022-07-30T11:38:04.236Z,42.58
2022-07-30T11:41:26.885Z,42.29
2022-07-30T11:44:48.862Z,41.84
2022-07-30T11:48:13.017Z,41.76
2022-07-30T11:51:43.697Z,41.51
2022-07-30T11:55:06.354Z,41.41
2022-07-30T11:58:30.049Z,41.34
2022-07-30T12:01:56.021Z,41.24
2022-07-30T12:05:24.417Z,41.10
2022-07-30T12:08:49.071Z,41.75
2022-07-30T12:12:23.574Z,41.14
2022-07-30T12:15:47.511Z,40.48
2022-07-30T12:19:09.838Z,40.63
2022-07-30T12:22:34.181Z,40.82
2022-07-30T12:25:58.499Z,40.41
2022-07-30T12:29:20.757Z,40.09
2022-07-30T12:32:42.828Z,40.52
2022-07-30T12:36:05.350Z,40.82
2022-07-30T12:39:28.119Z,39.96
2022-07-30T12:42:54.832Z,41.46
2022-07-30T12:46:19.463Z,41.51
2022-07-30T12:49:48.833Z,40.84
2022-07-30T12:53:11.407Z,40.54
2022-07-30T12:56:32.874Z,41.07
2022-07-30T13:00:06.574Z,40.61
2022-07-30T13:03:39.173Z,40.65
2022-07-30T13:07:05.190Z,41.46
2022-07-30T13:10:31.133Z,41.28
2022-07-30T13:13:53.979Z,40.93
2022-07-30T13:17:17.012Z,40.34
2022-07-30T13:20:39.103Z,40.34
2022-07-30T13:24:01.553Z,40.56
2022-07-30T13:27:23.334Z,40.92
2022-07-30T13:30:45.664Z,41.77
2022-07-30T13:34:08.683Z,40.81
2022-07-30T13:37:37.474Z,40.27
2022-07-30T13:41:02.611Z,40.70
2022-07-30T13:44:24.595Z,40.09
2022-07-30T13:47:46.580Z,39.63
2022-07-30T13:51:09.837Z,39.58
2022-07-30T13:54:31.727Z,39.72
2022-07-30T13:57:53.559Z,40.38
2022-07-30T14:01:18.192Z,39.93
2022-07-30T14:04:40.428Z,39.78
2022-07-30T14:08:04.643Z,39.28
2022-07-30T14:11:26.960Z,39.05
2022-07-30T14:14:49.308Z,39.35
2022-07-30T14:18:11.205Z,38.94
2022-07-30T14:21:33.179Z,39.50
2022-07-30T14:24:56.494Z,38.68
2022-07-30T14:28:17.984Z,38.74
2022-07-30T14:31:40.615Z,38.70
2022-07-30T14:35:02.224Z,39.11
2022-07-30T14:38:25.451Z,39.00
2022-07-30T14:41:52.296Z,38.72
2022-07-30T14:45:17.693Z,38.23
2022-07-30T14:48:39.583Z,38.51
2022-07-30T14:52:01.962Z,38.65
2022-07-30T14:55:23.835Z,37.79
2022-07-30T14:58:46.982Z,38.04
2022-07-30T15:02:10.887Z,37.55
2022-07-30T15:05:32.707Z,37.51
2022-07-30T15:08:54.585Z,37.97
2022-07-30T15:12:23.886Z,36.79
2022-07-30T15:15:50.375Z,36.55
2022-07-30T15:19:13.663Z,36.72
2022-07-30T15:22:35.628Z,37.12
2022-07-30T15:25:57.233Z,37.18
2022-07-30T15:29:21.071Z,37.51
2022-07-30T15:32:44.742Z,37.29
2022-07-30T15:36:07.285Z,36.51
2022-07-30T15:39:29.626Z,35.32
2022-07-30T15:42:51.277Z,34.54
2022-07-30T15:46:13.173Z,33.57
2022-07-30T15:49:36.274Z,33.73
2022-07-30T15:52:58.497Z,33.69
2022-07-30T15:56:20.737Z,33.84
2022-07-30T15:59:42.299Z,33.86
2022-07-30T16:03:04.302Z,33.33
2022-07-30T16:06:27.673Z,32.06
2022-07-30T16:09:49.503Z,32.46
2022-07-30T16:13:11.240Z,32.27
2022-07-30T16:16:32.928Z,30.96
2022-07-30T16:19:55.017Z,31.26
2022-07-30T16:23:21.250Z,29.40
2022-07-30T16:26:43.481Z,29.46
2022-07-30T16:30:05.722Z,29.23
2022-07-30T16:33:27.664Z,29.18
2022-07-30T16:36:49.467Z,29.29
2022-07-30T16:40:13.583Z,29.42
2022-07-30T16:43:35.948Z,29.42
2022-07-30T16:46:57.714Z,29.15
2022-07-30T16:50:20.005Z,28.90
2022-07-30T16:53:41.823Z,29.71
2022-07-30T16:57:10.385Z,29.31
2022-07-30T17:00:32.387Z,29.49
2022-07-30T17:03:54.084Z,28.89
2022-07-30T17:07:16.067Z,29.02
2022-07-30T17:10:37.623Z,29.30
2022-07-30T17:14:04.167Z,29.67
2022-07-30T17:17:25.721Z,29.00
2022-07-30T17:20:47.644Z,29.45
2022-07-30T17:24:13.490Z,29.34
2022-07-30T17:27:35.671Z,29.54
2022-07-30T17:30:58.625Z,29.62
2022-07-30T17:34:21.400Z,29.02
2022-07-30T17:37:42.979Z,29.92
2022-07-30T17:41:04.829Z,29.97
2022-07-30T17:44:27.181Z,29.33
2022-07-30T17:47:49.811Z,29.07
2022-07-30T17:51:11.616Z,29.04
2022-07-30T17:54:33.539Z,29.40
2022-07-30T17:57:55.652Z,30.41
2022-07-30T18:01:17.835Z,29.70
2022-07-30T18:04:41.176Z,31.22
2022-07-30T18:08:03.023Z,31.19
2022-07-30T18:11:25.629Z,31.83
2022-07-30T18:14:47.505Z,33.23
2022-07-30T18:18:09.436Z,32.56
2022-07-30T18:21:32.342Z,32.89
2022-07-30T18:24:53.825Z,33.11
2022-07-30T18:28:15.611Z,35.13
2022-07-30T18:31:37.390Z,36.39
2022-07-30T18:34:59.283Z,37.22
2022-07-30T18:38:22.715Z,38.06
2022-07-30T18:41:45.916Z,38.26
2022-07-30T18:45:08.608Z,38.80
2022-07-30T18:48:30.407Z,39.01
2022-07-30T18:51:52.354Z,40.01
2022-07-30T18:55:17.319Z,40.40
2022-07-30T18:58:39.258Z,41.39
2022-07-30T19:02:01.445Z,41.51
2022-07-30T19:05:23.069Z,41.98
2022-07-30T19:08:44.713Z,42.34
2022-07-30T19:12:08.165Z,43.15
2022-07-30T19:15:29.891Z,43.58
2022-07-30T19:18:51.921Z,44.16
2022-07-30T19:22:13.621Z,44.65
2022-07-30T19:25:37.118Z,45.02
2022-07-30T19:29:00.080Z,45.22
2022-07-30T19:32:21.593Z,45.38
2022-07-30T19:35:43.479Z,45.73
2022-07-30T19:39:07.410Z,46.21
2022-07-30T19:42:29.300Z,46.69
2022-07-30T19:45:53.510Z,47.16
2022-07-30T19:49:19.840Z,47.39
2022-07-30T19:52:51.373Z,47.63
2022-07-30T19:56:13.242Z,47.99
2022-07-30T19:59:45.012Z,48.02
2022-07-30T20:03:12.702Z,49.93
2022-07-30T20:06:36.275Z,50.09
2022-07-30T20:10:00.396Z,50.57
2022-07-30T20:13:23.418Z,51.03
2022-07-30T20:16:45.565Z,50.96
2022-07-30T20:20:09.772Z,51.55
2022-07-30T20:23:31.638Z,51.75
2022-07-30T20:26:53.565Z,52.20
2022-07-30T20:30:15.352Z,51.91
2022-07-30T20:33:39.129Z,52.42
2022-07-30T20:37:15.083Z,52.49
2022-07-30T20:40:46.565Z,52.65
2022-07-30T20:44:11.137Z,52.96
2022-07-30T20:47:38.714Z,53.46
2022-07-30T20:51:00.424Z,54.08
2022-07-30T20:54:23.674Z,54.23
2022-07-30T20:58:01.132Z,54.62
2022-07-30T21:01:28.373Z,54.81
2022-07-30T21:04:56.659Z,55.00
2022-07-30T21:08:25.170Z,55.31
2022-07-30T21:11:50.411Z,55.37
2022-07-30T21:15:23.887Z,55.62
2022-07-30T21:18:50.475Z,55.83
2022-07-30T21:22:12.213Z,56.31
2022-07-30T21:25:41.524Z,56.38
2022-07-30T21:29:19.505Z,57.03
2022-07-30T21:32:42.222Z,57.01
2022-07-30T21:36:04.174Z,57.25
2022-07-30T21:39:29.145Z,57.76
2022-07-30T21:42:50.718Z,58.29
2022-07-30T21:46:14.500Z,58.52
2022-07-30T21:49:36.327Z,58.71
2022-07-30T21:52:58.074Z,58.84
2022-07-30T21:56:20.425Z,58.68
2022-07-30T21:59:42.119Z,59.20
2022-07-30T22:03:12.421Z,59.37
2022-07-30T22:06:47.058Z,59.54
2022-07-30T22:10:09.461Z,59.97
2022-07-30T22:13:32.555Z,60.63
2022-07-30T22:16:54.578Z,60.81
2022-07-30T22:20:17.697Z,60.83
2022-07-30T22:23:40.338Z,60.76
2022-07-30T22:27:16.742Z,60.97
2022-07-30T22:30:38.583Z,61.49
2022-07-30T22:34:00.509Z,61.74
2022-07-30T22:37:23.417Z,61.62
2022-07-30T22:40:44.898Z,62.07
2022-07-30T22:44:06.726Z,61.91
2022-07-30T22:47:51.500Z,61.87
2022-07-30T22:51:16.095Z,62.28
2022-07-30T22:54:39.735Z,62.24
2022-07-30T22:58:01.496Z,62.60
2022-07-30T23:01:23.270Z,62.93
2022-07-30T23:04:45.254Z,63.37
2022-07-30T23:08:07.364Z,63.61
2022-07-30T23:11:37.169Z,63.95
2022-07-30T23:14:59.753Z,64.18
2022-07-30T23:18:21.298Z,64.47
2022-07-30T23:21:48.654Z,64.95
2022-07-30T23:25:12.052Z,64.87
2022-07-30T23:28:35.373Z,65.25
2022-07-30T23:31:57.417Z,65.29
2022-07-30T23:35:19.141Z,65.36
2022-07-30T23:38:40.994Z,65.50
2022-07-30T23:42:02.698Z,65.66
2022-07-30T23:45:26.035Z,65.77
2022-07-30T23:48:47.861Z,66.12
2022-07-30T23:52:09.967Z,66.33
2022-07-30T23:55:33.398Z,66.80
2022-07-30T23:58:55.142Z,67.15
